sensor_id;sensor_type;location;lat;lon;timestamp;temperature;humidity
32217;DHT22;67098;51.140;4.088;2024-01-30T00:02:07;12.10;99.90
32217;DHT22;67098;51.140;4.088;2024-01-30T00:04:32;12.10;99.90
32217;DHT22;67098;51.140;4.088;2024-01-30T00:06:58;12.20;99.90
32217;DHT22;67098;51.140;4.088;2024-01-30T00:09:24;12.10;99.90
32217;DHT22;67098;51.140;4.088;2024-01-30T00:11:49;12.10;99.90
32217;DHT22;67098;51.140;4.088;2024-01-30T00:14:16;12.10;99.90
32217;DHT22;67098;51.140;4.088;2024-01-30T00:16:42;12.10;99.90
32217;DHT22;67098;51.140;4.088;2024-01-30T00:19:08;12.20;99.90
32217;DHT22;67098;51.140;4.088;2024-01-30T00:21:34;12.20;99.90
32217;DHT22;67098;51.140;4.088;2024-01-30T00:23:59;12.10;99.90
32217;DHT22;67098;51.140;4.088;2024-01-30T00:26:25;12.20;99.90
32217;DHT22;67098;51.140;4.088;2024-01-30T00:28:51;12.10;99.90
32217;DHT22;67098;51.140;4.088;2024-01-30T00:31:17;12.10;99.90
32217;DHT22;67098;51.140;4.088;2024-01-30T00:33:43;12.10;99.90
32217;DHT22;67098;51.140;4.088;2024-01-30T00:36:09;12.10;99.90
32217;DHT22;67098;51.140;4.088;2024-01-30T00:38:36;12.10;99.90
32217;DHT22;67098;51.140;4.088;2024-01-30T00:41:02;12.00;99.90
32217;DHT22;67098;51.140;4.088;2024-01-30T00:43:28;12.10;99.90
32217;DHT22;67098;51.140;4.088;2024-01-30T00:45:55;12.20;99.90
32217;DHT22;67098;51.140;4.088;2024-01-30T00:48:21;12.10;99.90
32217;DHT22;67098;51.140;4.088;2024-01-30T00:50:47;12.10;99.90
32217;DHT22;67098;51.140;4.088;2024-01-30T00:53:12;12.10;99.90
32217;DHT22;67098;51.140;4.088;2024-01-30T00:55:38;12.10;99.90
32217;DHT22;67098;51.140;4.088;2024-01-30T00:58:04;12.10;99.90
32217;DHT22;67098;51.140;4.088;2024-01-30T01:00:31;12.10;99.90
32217;DHT22;67098;51.140;4.088;2024-01-30T01:02:58;12.10;99.90
32217;DHT22;67098;51.140;4.088;2024-01-30T01:05:24;12.20;99.90
32217;DHT22;67098;51.140;4.088;2024-01-30T01:07:50;12.10;99.90
32217;DHT22;67098;51.140;4.088;2024-01-30T01:10:18;12.10;99.90
32217;DHT22;67098;51.140;4.088;2024-01-30T01:12:45;12.00;99.90
32217;DHT22;67098;51.140;4.088;2024-01-30T01:15:11;12.10;99.90
32217;DHT22;67098;51.140;4.088;2024-01-30T01:17:38;12.10;99.90
32217;DHT22;67098;51.140;4.088;2024-01-30T01:20:05;12.10;99.90
32217;DHT22;67098;51.140;4.088;2024-01-30T01:22:32;12.10;99.90
32217;DHT22;67098;51.140;4.088;2024-01-30T01:24:58;12.10;99.90
32217;DHT22;67098;51.140;4.088;2024-01-30T01:27:24;12.10;99.90
32217;DHT22;67098;51.140;4.088;2024-01-30T01:29:51;12.20;99.90
32217;DHT22;67098;51.140;4.088;2024-01-30T01:32:17;12.20;99.90
32217;DHT22;67098;51.140;4.088;2024-01-30T01:34:42;12.20;99.90
32217;DHT22;67098;51.140;4.088;2024-01-30T01:37:08;12.20;99.90
32217;DHT22;67098;51.140;4.088;2024-01-30T01:39:34;12.10;99.90
32217;DHT22;67098;51.140;4.088;2024-01-30T01:42:00;12.20;99.90
32217;DHT22;67098;51.140;4.088;2024-01-30T01:44:26;12.10;99.90
32217;DHT22;67098;51.140;4.088;2024-01-30T01:46:52;12.10;99.90
32217;DHT22;67098;51.140;4.088;2024-01-30T01:49:19;12.00;99.90
32217;DHT22;67098;51.140;4.088;2024-01-30T01:51:47;12.00;99.90
32217;DHT22;67098;51.140;4.088;2024-01-30T01:54:14;12.00;99.90
32217;DHT22;67098;51.140;4.088;2024-01-30T01:56:42;12.10;99.90
32217;DHT22;67098;51.140;4.088;2024-01-30T01:59:08;12.00;99.90
32217;DHT22;67098;51.140;4.088;2024-01-30T02:01:37;12.00;99.90
32217;DHT22;67098;51.140;4.088;2024-01-30T02:04:04;12.10;99.90
32217;DHT22;67098;51.140;4.088;2024-01-30T02:06:30;12.00;99.90
32217;DHT22;67098;51.140;4.088;2024-01-30T02:08:56;12.00;99.90
32217;DHT22;67098;51.140;4.088;2024-01-30T02:11:22;11.90;99.90
32217;DHT22;67098;51.140;4.088;2024-01-30T02:13:49;11.80;99.90
32217;DHT22;67098;51.140;4.088;2024-01-30T02:16:15;11.80;99.90
32217;DHT22;67098;51.140;4.088;2024-01-30T02:18:42;11.80;99.90
32217;DHT22;67098;51.140;4.088;2024-01-30T02:21:11;11.70;99.90
32217;DHT22;67098;51.140;4.088;2024-01-30T02:23:38;11.80;99.90
32217;DHT22;67098;51.140;4.088;2024-01-30T02:26:05;11.80;99.90
32217;DHT22;67098;51.140;4.088;2024-01-30T02:28:31;11.80;99.90
32217;DHT22;67098;51.140;4.088;2024-01-30T02:30:56;11.80;99.90
32217;DHT22;67098;51.140;4.088;2024-01-30T02:33:22;11.90;99.90
32217;DHT22;67098;51.140;4.088;2024-01-30T02:35:48;12.00;99.90
32217;DHT22;67098;51.140;4.088;2024-01-30T02:38:15;12.00;99.90
32217;DHT22;67098;51.140;4.088;2024-01-30T02:40:42;12.00;99.90
32217;DHT22;67098;51.140;4.088;2024-01-30T02:43:08;12.00;99.90
32217;DHT22;67098;51.140;4.088;2024-01-30T02:45:33;12.10;99.90
32217;DHT22;67098;51.140;4.088;2024-01-30T02:47:59;12.20;99.90
32217;DHT22;67098;51.140;4.088;2024-01-30T02:50:25;12.20;99.90
32217;DHT22;67098;51.140;4.088;2024-01-30T02:52:51;12.30;99.90
32217;DHT22;67098;51.140;4.088;2024-01-30T02:55:17;12.30;99.90
32217;DHT22;67098;51.140;4.088;2024-01-30T02:57:46;12.20;99.90
32217;DHT22;67098;51.140;4.088;2024-01-30T03:00:12;12.30;99.90
32217;DHT22;67098;51.140;4.088;2024-01-30T03:02:38;12.30;99.90
32217;DHT22;67098;51.140;4.088;2024-01-30T03:05:05;12.30;99.90
32217;DHT22;67098;51.140;4.088;2024-01-30T03:07:31;12.30;99.90
32217;DHT22;67098;51.140;4.088;2024-01-30T03:09:57;12.40;99.90
32217;DHT22;67098;51.140;4.088;2024-01-30T03:12:22;12.40;99.90
32217;DHT22;67098;51.140;4.088;2024-01-30T03:14:48;12.40;99.90
32217;DHT22;67098;51.140;4.088;2024-01-30T03:17:15;12.40;99.90
32217;DHT22;67098;51.140;4.088;2024-01-30T03:19:41;12.40;99.90
32217;DHT22;67098;51.140;4.088;2024-01-30T03:22:07;12.30;99.90
32217;DHT22;67098;51.140;4.088;2024-01-30T03:24:32;12.30;99.90
32217;DHT22;67098;51.140;4.088;2024-01-30T03:26:58;12.30;99.90
32217;DHT22;67098;51.140;4.088;2024-01-30T03:29:24;12.40;99.90
32217;DHT22;67098;51.140;4.088;2024-01-30T03:31:50;12.40;99.90
32217;DHT22;67098;51.140;4.088;2024-01-30T03:34:16;12.50;99.90
32217;DHT22;67098;51.140;4.088;2024-01-30T03:36:41;12.50;99.90
32217;DHT22;67098;51.140;4.088;2024-01-30T03:39:07;12.50;99.90
32217;DHT22;67098;51.140;4.088;2024-01-30T03:41:33;12.60;99.90
32217;DHT22;67098;51.140;4.088;2024-01-30T03:43:59;12.60;99.90
32217;DHT22;67098;51.140;4.088;2024-01-30T03:46:25;12.60;99.90
32217;DHT22;67098;51.140;4.088;2024-01-30T03:48:51;12.60;99.90
32217;DHT22;67098;51.140;4.088;2024-01-30T03:51:16;12.60;99.90
32217;DHT22;67098;51.140;4.088;2024-01-30T03:53:42;12.50;99.90
32217;DHT22;67098;51.140;4.088;2024-01-30T03:56:09;12.50;99.90
32217;DHT22;67098;51.140;4.088;2024-01-30T03:58:35;12.50;99.90
32217;DHT22;67098;51.140;4.088;2024-01-30T04:01:01;12.40;99.90
32217;DHT22;67098;51.140;4.088;2024-01-30T04:03:26;12.40;99.90
32217;DHT22;67098;51.140;4.088;2024-01-30T04:05:53;12.30;99.90
32217;DHT22;67098;51.140;4.088;2024-01-30T04:08:19;12.40;99.90
32217;DHT22;67098;51.140;4.088;2024-01-30T04:10:45;12.30;99.90
32217;DHT22;67098;51.140;4.088;2024-01-30T04:13:11;12.30;99.90
32217;DHT22;67098;51.140;4.088;2024-01-30T04:15:37;12.20;99.90
32217;DHT22;67098;51.140;4.088;2024-01-30T04:18:03;12.20;99.90
32217;DHT22;67098;51.140;4.088;2024-01-30T04:20:29;12.20;99.90
32217;DHT22;67098;51.140;4.088;2024-01-30T04:22:55;12.30;99.90
32217;DHT22;67098;51.140;4.088;2024-01-30T04:25:21;12.30;99.90
32217;DHT22;67098;51.140;4.088;2024-01-30T04:27:47;12.20;99.90
32217;DHT22;67098;51.140;4.088;2024-01-30T04:30:14;12.30;99.90
32217;DHT22;67098;51.140;4.088;2024-01-30T04:32:40;12.20;99.90
32217;DHT22;67098;51.140;4.088;2024-01-30T04:35:06;12.20;99.90
32217;DHT22;67098;51.140;4.088;2024-01-30T04:37:32;12.10;99.90
32217;DHT22;67098;51.140;4.088;2024-01-30T04:39:57;12.20;99.90
32217;DHT22;67098;51.140;4.088;2024-01-30T04:42:23;12.20;99.90
32217;DHT22;67098;51.140;4.088;2024-01-30T04:44:49;12.20;99.90
32217;DHT22;67098;51.140;4.088;2024-01-30T04:47:15;12.10;99.90
32217;DHT22;67098;51.140;4.088;2024-01-30T04:49:41;12.10;99.90
32217;DHT22;67098;51.140;4.088;2024-01-30T04:52:08;12.10;99.90
32217;DHT22;67098;51.140;4.088;2024-01-30T04:54:35;12.20;99.90
32217;DHT22;67098;51.140;4.088;2024-01-30T04:57:01;12.20;99.90
32217;DHT22;67098;51.140;4.088;2024-01-30T04:59:27;12.20;99.90
32217;DHT22;67098;51.140;4.088;2024-01-30T05:01:53;12.30;99.90
32217;DHT22;67098;51.140;4.088;2024-01-30T05:04:19;12.40;99.90
32217;DHT22;67098;51.140;4.088;2024-01-30T05:06:45;12.40;99.90
32217;DHT22;67098;51.140;4.088;2024-01-30T05:09:11;12.40;99.90
32217;DHT22;67098;51.140;4.088;2024-01-30T05:11:38;12.30;99.90
32217;DHT22;67098;51.140;4.088;2024-01-30T05:14:05;12.40;99.90
32217;DHT22;67098;51.140;4.088;2024-01-30T05:16:31;12.40;99.90
32217;DHT22;67098;51.140;4.088;2024-01-30T05:18:57;12.50;99.90
32217;DHT22;67098;51.140;4.088;2024-01-30T05:21:23;12.40;99.90
32217;DHT22;67098;51.140;4.088;2024-01-30T05:23:49;12.40;99.90
32217;DHT22;67098;51.140;4.088;2024-01-30T05:26:15;12.40;99.90
32217;DHT22;67098;51.140;4.088;2024-01-30T05:28:41;12.50;99.90
32217;DHT22;67098;51.140;4.088;2024-01-30T05:31:07;12.50;99.90
32217;DHT22;67098;51.140;4.088;2024-01-30T05:33:33;12.50;99.90
32217;DHT22;67098;51.140;4.088;2024-01-30T05:35:59;12.40;99.90
32217;DHT22;67098;51.140;4.088;2024-01-30T05:38:25;12.30;99.90
32217;DHT22;67098;51.140;4.088;2024-01-30T05:40:51;12.30;99.90
32217;DHT22;67098;51.140;4.088;2024-01-30T05:43:17;12.40;99.90
32217;DHT22;67098;51.140;4.088;2024-01-30T05:45:43;12.30;99.90
32217;DHT22;67098;51.140;4.088;2024-01-30T05:48:09;12.30;99.90
32217;DHT22;67098;51.140;4.088;2024-01-30T05:50:35;12.20;99.90
32217;DHT22;67098;51.140;4.088;2024-01-30T05:53:00;12.30;99.90
32217;DHT22;67098;51.140;4.088;2024-01-30T05:55:26;12.10;99.90
32217;DHT22;67098;51.140;4.088;2024-01-30T05:57:52;12.10;99.90
32217;DHT22;67098;51.140;4.088;2024-01-30T06:00:18;12.10;99.90
32217;DHT22;67098;51.140;4.088;2024-01-30T06:02:44;12.10;99.90
32217;DHT22;67098;51.140;4.088;2024-01-30T06:05:10;12.10;99.90
32217;DHT22;67098;51.140;4.088;2024-01-30T06:07:35;12.10;99.90
32217;DHT22;67098;51.140;4.088;2024-01-30T06:10:01;12.20;99.90
32217;DHT22;67098;51.140;4.088;2024-01-30T06:12:28;12.30;99.90
32217;DHT22;67098;51.140;4.088;2024-01-30T06:14:54;12.30;99.90
32217;DHT22;67098;51.140;4.088;2024-01-30T06:17:23;12.20;99.90
32217;DHT22;67098;51.140;4.088;2024-01-30T06:19:48;12.20;99.90
32217;DHT22;67098;51.140;4.088;2024-01-30T06:22:15;12.30;99.90
32217;DHT22;67098;51.140;4.088;2024-01-30T06:24:41;12.40;99.90
32217;DHT22;67098;51.140;4.088;2024-01-30T06:27:07;12.40;99.90
32217;DHT22;67098;51.140;4.088;2024-01-30T06:29:33;12.30;99.90
32217;DHT22;67098;51.140;4.088;2024-01-30T06:31:59;12.40;99.90
32217;DHT22;67098;51.140;4.088;2024-01-30T06:34:25;12.50;99.90
32217;DHT22;67098;51.140;4.088;2024-01-30T06:36:52;12.50;99.90
32217;DHT22;67098;51.140;4.088;2024-01-30T06:39:17;12.50;99.90
32217;DHT22;67098;51.140;4.088;2024-01-30T06:41:43;12.50;99.90
32217;DHT22;67098;51.140;4.088;2024-01-30T06:44:12;12.50;99.90
32217;DHT22;67098;51.140;4.088;2024-01-30T06:46:38;12.50;99.90
32217;DHT22;67098;51.140;4.088;2024-01-30T06:49:04;12.60;99.90
32217;DHT22;67098;51.140;4.088;2024-01-30T06:51:30;12.60;99.90
32217;DHT22;67098;51.140;4.088;2024-01-30T06:53:56;12.50;99.90
32217;DHT22;67098;51.140;4.088;2024-01-30T06:56:22;12.50;99.90
32217;DHT22;67098;51.140;4.088;2024-01-30T06:58:48;12.50;99.90
32217;DHT22;67098;51.140;4.088;2024-01-30T07:01:14;12.60;99.90
32217;DHT22;67098;51.140;4.088;2024-01-30T07:03:40;12.60;99.90
32217;DHT22;67098;51.140;4.088;2024-01-30T07:06:06;12.70;99.90
32217;DHT22;67098;51.140;4.088;2024-01-30T07:08:32;12.70;99.90
32217;DHT22;67098;51.140;4.088;2024-01-30T07:10:58;12.70;99.90
32217;DHT22;67098;51.140;4.088;2024-01-30T07:13:24;12.70;99.90
32217;DHT22;67098;51.140;4.088;2024-01-30T07:15:50;12.70;99.90
32217;DHT22;67098;51.140;4.088;2024-01-30T07:18:16;12.70;99.90
32217;DHT22;67098;51.140;4.088;2024-01-30T07:20:42;12.70;99.90
32217;DHT22;67098;51.140;4.088;2024-01-30T07:23:15;12.70;99.90
32217;DHT22;67098;51.140;4.088;2024-01-30T07:25:45;12.70;99.90
32217;DHT22;67098;51.140;4.088;2024-01-30T07:28:11;12.70;99.90
32217;DHT22;67098;51.140;4.088;2024-01-30T07:30:38;12.70;99.90
32217;DHT22;67098;51.140;4.088;2024-01-30T07:33:04;12.80;99.90
32217;DHT22;67098;51.140;4.088;2024-01-30T07:35:30;12.80;99.90
32217;DHT22;67098;51.140;4.088;2024-01-30T07:37:56;12.80;99.90
32217;DHT22;67098;51.140;4.088;2024-01-30T07:40:23;12.70;99.90
32217;DHT22;67098;51.140;4.088;2024-01-30T07:42:49;12.80;99.90
32217;DHT22;67098;51.140;4.088;2024-01-30T07:45:15;12.70;99.90
32217;DHT22;67098;51.140;4.088;2024-01-30T07:47:41;12.80;99.90
32217;DHT22;67098;51.140;4.088;2024-01-30T07:50:08;12.70;99.90
32217;DHT22;67098;51.140;4.088;2024-01-30T07:52:34;12.80;99.90
32217;DHT22;67098;51.140;4.088;2024-01-30T07:55:00;12.80;99.90
32217;DHT22;67098;51.140;4.088;2024-01-30T07:57:26;12.90;99.90
32217;DHT22;67098;51.140;4.088;2024-01-30T07:59:52;12.80;99.90
32217;DHT22;67098;51.140;4.088;2024-01-30T08:02:17;12.80;99.90
32217;DHT22;67098;51.140;4.088;2024-01-30T08:04:43;12.80;99.90
32217;DHT22;67098;51.140;4.088;2024-01-30T08:07:14;12.80;99.90
32217;DHT22;67098;51.140;4.088;2024-01-30T08:09:39;12.80;99.90
32217;DHT22;67098;51.140;4.088;2024-01-30T08:12:05;12.80;99.90
32217;DHT22;67098;51.140;4.088;2024-01-30T08:14:31;12.80;99.90
32217;DHT22;67098;51.140;4.088;2024-01-30T08:16:57;12.90;99.90
32217;DHT22;67098;51.140;4.088;2024-01-30T08:19:23;12.90;99.90
32217;DHT22;67098;51.140;4.088;2024-01-30T08:21:48;12.90;99.90
32217;DHT22;67098;51.140;4.088;2024-01-30T08:24:14;12.80;99.90
32217;DHT22;67098;51.140;4.088;2024-01-30T08:26:40;12.90;99.90
32217;DHT22;67098;51.140;4.088;2024-01-30T08:29:06;12.90;99.90
32217;DHT22;67098;51.140;4.088;2024-01-30T08:31:31;12.90;99.90
32217;DHT22;67098;51.140;4.088;2024-01-30T08:33:57;12.80;99.90
32217;DHT22;67098;51.140;4.088;2024-01-30T08:36:24;13.00;99.90
32217;DHT22;67098;51.140;4.088;2024-01-30T08:38:50;12.90;99.90
32217;DHT22;67098;51.140;4.088;2024-01-30T08:41:16;12.90;99.90
32217;DHT22;67098;51.140;4.088;2024-01-30T08:43:42;13.00;99.90
32217;DHT22;67098;51.140;4.088;2024-01-30T08:46:07;13.00;99.90
32217;DHT22;67098;51.140;4.088;2024-01-30T08:48:33;12.90;99.90
32217;DHT22;67098;51.140;4.088;2024-01-30T08:50:59;12.90;99.90
32217;DHT22;67098;51.140;4.088;2024-01-30T08:53:24;12.90;99.90
32217;DHT22;67098;51.140;4.088;2024-01-30T08:55:50;13.00;99.90
32217;DHT22;67098;51.140;4.088;2024-01-30T08:58:16;13.00;99.90
32217;DHT22;67098;51.140;4.088;2024-01-30T09:00:44;13.00;99.90
32217;DHT22;67098;51.140;4.088;2024-01-30T09:03:10;13.00;99.90
32217;DHT22;67098;51.140;4.088;2024-01-30T09:05:36;12.90;99.90
32217;DHT22;67098;51.140;4.088;2024-01-30T09:08:01;12.90;99.90
32217;DHT22;67098;51.140;4.088;2024-01-30T09:10:27;12.90;99.90
32217;DHT22;67098;51.140;4.088;2024-01-30T09:12:53;13.00;99.90
32217;DHT22;67098;51.140;4.088;2024-01-30T09:15:19;13.00;99.90
32217;DHT22;67098;51.140;4.088;2024-01-30T09:17:44;13.00;99.90
32217;DHT22;67098;51.140;4.088;2024-01-30T09:20:10;13.00;99.90
32217;DHT22;67098;51.140;4.088;2024-01-30T09:22:37;13.10;99.90
32217;DHT22;67098;51.140;4.088;2024-01-30T09:25:03;13.10;99.90
32217;DHT22;67098;51.140;4.088;2024-01-30T09:27:29;13.20;99.90
32217;DHT22;67098;51.140;4.088;2024-01-30T09:29:55;13.20;99.90
32217;DHT22;67098;51.140;4.088;2024-01-30T09:32:21;13.20;99.90
32217;DHT22;67098;51.140;4.088;2024-01-30T09:34:47;13.30;99.90
32217;DHT22;67098;51.140;4.088;2024-01-30T09:37:12;13.30;99.90
32217;DHT22;67098;51.140;4.088;2024-01-30T09:39:40;13.20;99.90
32217;DHT22;67098;51.140;4.088;2024-01-30T09:42:11;13.10;99.90
32217;DHT22;67098;51.140;4.088;2024-01-30T09:44:40;13.30;99.90
32217;DHT22;67098;51.140;4.088;2024-01-30T09:47:08;13.40;99.90
32217;DHT22;67098;51.140;4.088;2024-01-30T09:49:36;13.50;99.90
32217;DHT22;67098;51.140;4.088;2024-01-30T09:52:04;13.50;99.90
32217;DHT22;67098;51.140;4.088;2024-01-30T09:54:31;13.60;99.90
32217;DHT22;67098;51.140;4.088;2024-01-30T09:56:57;13.60;99.90
32217;DHT22;67098;51.140;4.088;2024-01-30T09:59:23;13.50;99.90
32217;DHT22;67098;51.140;4.088;2024-01-30T10:01:50;13.40;99.90
32217;DHT22;67098;51.140;4.088;2024-01-30T10:04:16;13.40;99.90
32217;DHT22;67098;51.140;4.088;2024-01-30T10:06:42;13.30;99.90
32217;DHT22;67098;51.140;4.088;2024-01-30T10:09:08;13.10;99.90
32217;DHT22;67098;51.140;4.088;2024-01-30T10:11:35;13.20;99.90
32217;DHT22;67098;51.140;4.088;2024-01-30T10:14:01;13.00;99.90
32217;DHT22;67098;51.140;4.088;2024-01-30T10:16:27;13.20;99.90
32217;DHT22;67098;51.140;4.088;2024-01-30T10:18:53;13.10;99.90
32217;DHT22;67098;51.140;4.088;2024-01-30T10:21:19;13.10;99.90
32217;DHT22;67098;51.140;4.088;2024-01-30T10:23:45;13.10;99.90
32217;DHT22;67098;51.140;4.088;2024-01-30T10:26:11;13.10;99.90
32217;DHT22;67098;51.140;4.088;2024-01-30T10:28:37;13.20;99.90
32217;DHT22;67098;51.140;4.088;2024-01-30T10:31:03;13.20;99.90
32217;DHT22;67098;51.140;4.088;2024-01-30T10:33:31;13.10;99.80
32217;DHT22;67098;51.140;4.088;2024-01-30T10:36:04;13.10;99.90
32217;DHT22;67098;51.140;4.088;2024-01-30T10:38:32;12.90;99.90
32217;DHT22;67098;51.140;4.088;2024-01-30T10:41:01;12.90;99.90
32217;DHT22;67098;51.140;4.088;2024-01-30T10:43:36;12.90;99.90
32217;DHT22;67098;51.140;4.088;2024-01-30T10:46:18;12.90;99.90
32217;DHT22;67098;51.140;4.088;2024-01-30T10:48:50;12.70;99.90
32217;DHT22;67098;51.140;4.088;2024-01-30T10:51:16;12.70;99.80
32217;DHT22;67098;51.140;4.088;2024-01-30T10:53:46;12.80;99.60
32217;DHT22;67098;51.140;4.088;2024-01-30T10:56:13;12.70;99.40
32217;DHT22;67098;51.140;4.088;2024-01-30T10:58:39;12.70;99.50
32217;DHT22;67098;51.140;4.088;2024-01-30T11:01:06;12.70;99.70
32217;DHT22;67098;51.140;4.088;2024-01-30T11:03:33;12.70;99.60
32217;DHT22;67098;51.140;4.088;2024-01-30T11:06:02;12.60;99.80
32217;DHT22;67098;51.140;4.088;2024-01-30T11:08:31;12.50;99.90
32217;DHT22;67098;51.140;4.088;2024-01-30T11:10:58;12.60;99.90
32217;DHT22;67098;51.140;4.088;2024-01-30T11:13:30;12.50;99.90
32217;DHT22;67098;51.140;4.088;2024-01-30T11:16:04;12.50;99.90
32217;DHT22;67098;51.140;4.088;2024-01-30T11:18:31;12.60;99.90
32217;DHT22;67098;51.140;4.088;2024-01-30T11:20:58;12.70;99.70
32217;DHT22;67098;51.140;4.088;2024-01-30T11:23:26;12.80;99.30
32217;DHT22;67098;51.140;4.088;2024-01-30T11:25:56;12.80;99.20
32217;DHT22;67098;51.140;4.088;2024-01-30T11:28:23;12.80;99.30
32217;DHT22;67098;51.140;4.088;2024-01-30T11:30:49;12.80;98.90
32217;DHT22;67098;51.140;4.088;2024-01-30T11:33:30;12.80;99.00
32217;DHT22;67098;51.140;4.088;2024-01-30T11:36:00;12.70;98.90
32217;DHT22;67098;51.140;4.088;2024-01-30T11:38:27;12.60;99.40
32217;DHT22;67098;51.140;4.088;2024-01-30T11:40:54;12.70;99.50
32217;DHT22;67098;51.140;4.088;2024-01-30T11:43:24;12.60;99.10
32217;DHT22;67098;51.140;4.088;2024-01-30T11:45:50;12.60;99.20
32217;DHT22;67098;51.140;4.088;2024-01-30T11:48:16;12.70;99.20
32217;DHT22;67098;51.140;4.088;2024-01-30T11:50:43;12.60;99.30
32217;DHT22;67098;51.140;4.088;2024-01-30T11:53:10;12.60;99.20
32217;DHT22;67098;51.140;4.088;2024-01-30T11:55:36;12.60;99.10
32217;DHT22;67098;51.140;4.088;2024-01-30T11:58:03;12.50;99.40
32217;DHT22;67098;51.140;4.088;2024-01-30T12:00:32;12.80;98.90
32217;DHT22;67098;51.140;4.088;2024-01-30T12:02:59;13.00;98.50
32217;DHT22;67098;51.140;4.088;2024-01-30T12:05:26;13.20;98.10
32217;DHT22;67098;51.140;4.088;2024-01-30T12:07:53;13.10;97.80
32217;DHT22;67098;51.140;4.088;2024-01-30T12:10:19;13.10;97.70
32217;DHT22;67098;51.140;4.088;2024-01-30T12:12:49;13.00;97.90
32217;DHT22;67098;51.140;4.088;2024-01-30T12:15:15;13.00;98.00
32217;DHT22;67098;51.140;4.088;2024-01-30T12:17:41;13.00;98.10
32217;DHT22;67098;51.140;4.088;2024-01-30T12:20:15;12.90;98.00
32217;DHT22;67098;51.140;4.088;2024-01-30T12:22:43;12.90;98.30
32217;DHT22;67098;51.140;4.088;2024-01-30T12:25:11;12.90;98.10
32217;DHT22;67098;51.140;4.088;2024-01-30T12:27:38;12.80;98.30
32217;DHT22;67098;51.140;4.088;2024-01-30T12:30:08;12.80;98.30
32217;DHT22;67098;51.140;4.088;2024-01-30T12:32:41;12.80;98.40
32217;DHT22;67098;51.140;4.088;2024-01-30T12:35:10;12.60;98.80
32217;DHT22;67098;51.140;4.088;2024-01-30T12:37:37;12.60;99.00
32217;DHT22;67098;51.140;4.088;2024-01-30T12:40:03;12.60;99.10
32217;DHT22;67098;51.140;4.088;2024-01-30T12:42:29;12.60;98.90
32217;DHT22;67098;51.140;4.088;2024-01-30T12:44:57;12.40;99.00
32217;DHT22;67098;51.140;4.088;2024-01-30T12:47:24;12.30;99.10
32217;DHT22;67098;51.140;4.088;2024-01-30T12:49:50;12.30;99.10
32217;DHT22;67098;51.140;4.088;2024-01-30T12:52:19;12.10;99.50
32217;DHT22;67098;51.140;4.088;2024-01-30T12:54:45;12.00;99.70
32217;DHT22;67098;51.140;4.088;2024-01-30T12:57:11;12.10;99.70
32217;DHT22;67098;51.140;4.088;2024-01-30T12:59:37;12.00;99.60
32217;DHT22;67098;51.140;4.088;2024-01-30T13:02:03;11.90;99.80
32217;DHT22;67098;51.140;4.088;2024-01-30T13:04:29;11.90;99.50
32217;DHT22;67098;51.140;4.088;2024-01-30T13:06:55;11.80;99.50
32217;DHT22;67098;51.140;4.088;2024-01-30T13:09:21;11.60;99.70
32217;DHT22;67098;51.140;4.088;2024-01-30T13:11:47;11.60;99.60
32217;DHT22;67098;51.140;4.088;2024-01-30T13:14:12;11.70;99.50
32217;DHT22;67098;51.140;4.088;2024-01-30T13:16:38;11.70;99.60
32217;DHT22;67098;51.140;4.088;2024-01-30T13:19:04;11.60;99.60
32217;DHT22;67098;51.140;4.088;2024-01-30T13:21:30;11.70;99.50
32217;DHT22;67098;51.140;4.088;2024-01-30T13:23:55;11.60;99.40
32217;DHT22;67098;51.140;4.088;2024-01-30T13:26:21;11.70;99.30
32217;DHT22;67098;51.140;4.088;2024-01-30T13:28:47;11.60;99.40
32217;DHT22;67098;51.140;4.088;2024-01-30T13:31:16;11.50;99.60
32217;DHT22;67098;51.140;4.088;2024-01-30T13:33:42;11.60;99.40
32217;DHT22;67098;51.140;4.088;2024-01-30T13:36:10;11.60;99.30
32217;DHT22;67098;51.140;4.088;2024-01-30T13:38:36;11.60;99.20
32217;DHT22;67098;51.140;4.088;2024-01-30T13:41:01;11.60;99.40
32217;DHT22;67098;51.140;4.088;2024-01-30T13:43:28;11.60;99.40
32217;DHT22;67098;51.140;4.088;2024-01-30T13:45:54;11.60;99.30
32217;DHT22;67098;51.140;4.088;2024-01-30T13:48:20;11.60;99.30
32217;DHT22;67098;51.140;4.088;2024-01-30T13:50:46;11.60;99.40
32217;DHT22;67098;51.140;4.088;2024-01-30T13:53:11;11.60;99.40
32217;DHT22;67098;51.140;4.088;2024-01-30T13:55:37;11.70;99.40
32217;DHT22;67098;51.140;4.088;2024-01-30T13:58:05;11.70;99.50
32217;DHT22;67098;51.140;4.088;2024-01-30T14:00:31;11.60;99.70
32217;DHT22;67098;51.140;4.088;2024-01-30T14:02:57;11.60;99.70
32217;DHT22;67098;51.140;4.088;2024-01-30T14:05:25;11.40;99.90
32217;DHT22;67098;51.140;4.088;2024-01-30T14:07:51;11.50;99.80
32217;DHT22;67098;51.140;4.088;2024-01-30T14:10:18;11.60;99.80
32217;DHT22;67098;51.140;4.088;2024-01-30T14:12:43;11.60;99.60
32217;DHT22;67098;51.140;4.088;2024-01-30T14:15:10;11.50;99.60
32217;DHT22;67098;51.140;4.088;2024-01-30T14:17:36;11.50;99.80
32217;DHT22;67098;51.140;4.088;2024-01-30T14:20:05;11.60;99.70
32217;DHT22;67098;51.140;4.088;2024-01-30T14:22:33;11.60;99.70
32217;DHT22;67098;51.140;4.088;2024-01-30T14:25:02;11.60;99.50
32217;DHT22;67098;51.140;4.088;2024-01-30T14:27:29;11.70;99.30
32217;DHT22;67098;51.140;4.088;2024-01-30T14:29:56;11.80;99.40
32217;DHT22;67098;51.140;4.088;2024-01-30T14:32:22;11.70;99.30
32217;DHT22;67098;51.140;4.088;2024-01-30T14:34:49;11.80;99.30
32217;DHT22;67098;51.140;4.088;2024-01-30T14:37:15;11.80;99.40
32217;DHT22;67098;51.140;4.088;2024-01-30T14:39:42;11.70;99.50
32217;DHT22;67098;51.140;4.088;2024-01-30T14:42:08;11.70;99.60
32217;DHT22;67098;51.140;4.088;2024-01-30T14:44:34;11.70;99.90
32217;DHT22;67098;51.140;4.088;2024-01-30T14:47:00;11.60;99.80
32217;DHT22;67098;51.140;4.088;2024-01-30T14:49:27;11.60;99.90
32217;DHT22;67098;51.140;4.088;2024-01-30T14:51:53;11.50;99.90
32217;DHT22;67098;51.140;4.088;2024-01-30T14:54:19;11.60;99.90
32217;DHT22;67098;51.140;4.088;2024-01-30T14:56:45;11.40;99.90
32217;DHT22;67098;51.140;4.088;2024-01-30T14:59:11;11.30;99.90
32217;DHT22;67098;51.140;4.088;2024-01-30T15:01:37;11.30;99.90
32217;DHT22;67098;51.140;4.088;2024-01-30T15:04:03;11.20;99.90
32217;DHT22;67098;51.140;4.088;2024-01-30T15:06:29;11.30;99.90
32217;DHT22;67098;51.140;4.088;2024-01-30T15:08:55;11.40;99.90
32217;DHT22;67098;51.140;4.088;2024-01-30T15:11:21;11.30;99.90
32217;DHT22;67098;51.140;4.088;2024-01-30T15:13:46;11.30;99.90
32217;DHT22;67098;51.140;4.088;2024-01-30T15:16:12;11.20;99.90
32217;DHT22;67098;51.140;4.088;2024-01-30T15:18:38;11.20;99.90
32217;DHT22;67098;51.140;4.088;2024-01-30T15:21:04;11.20;99.90
32217;DHT22;67098;51.140;4.088;2024-01-30T15:23:30;11.20;99.90
32217;DHT22;67098;51.140;4.088;2024-01-30T15:25:55;11.20;99.90